createdAt,value
2018-10-12T00:00:01.524Z,18.27
2018-10-12T00:01:06.892Z,18.60
2018-10-12T00:02:11.012Z,18.73
2018-10-12T00:03:15.072Z,18.62
2018-10-12T00:04:19.096Z,18.45
2018-10-12T00:05:23.155Z,18.90
2018-10-12T00:06:27.523Z,17.82
2018-10-12T00:07:31.532Z,18.80
2018-10-12T00:08:35.611Z,16.95
2018-10-12T00:09:39.628Z,17.40
2018-10-12T00:10:43.645Z,17.82
2018-10-12T00:11:47.666Z,17.95
2018-10-12T00:12:51.670Z,17.82
2018-10-12T00:13:55.702Z,19.17
2018-10-12T00:14:59.712Z,18.57
2018-10-12T00:16:03.807Z,18.82
2018-10-12T00:17:07.811Z,18.35
2018-10-12T00:18:11.872Z,17.85
2018-10-12T00:19:15.902Z,17.50
2018-10-12T00:20:19.908Z,17.35
2018-10-12T00:21:23.892Z,17.50
2018-10-12T00:22:27.903Z,16.70
2018-10-12T00:23:32.307Z,17.37
2018-10-12T00:24:36.304Z,16.85
2018-10-12T00:25:40.316Z,17.60
2018-10-12T00:26:44.330Z,15.63
2018-10-12T00:27:48.332Z,18.32
2018-10-12T00:28:52.331Z,18.40
2018-10-12T00:29:56.387Z,17.30
2018-10-12T00:31:00.387Z,18.17
2018-10-12T00:32:04.400Z,17.10
2018-10-12T00:33:08.461Z,18.92
2018-10-12T00:34:12.529Z,17.65
2018-10-12T00:35:16.550Z,17.10
2018-10-12T00:36:20.550Z,17.92
2018-10-12T00:37:24.597Z,18.00
2018-10-12T00:38:28.667Z,16.70
2018-10-12T00:39:32.695Z,19.55
2018-10-12T00:40:36.860Z,17.23
2018-10-12T00:41:40.955Z,17.77
2018-10-12T00:42:44.959Z,17.15
2018-10-12T00:43:49.043Z,17.32
2018-10-12T00:44:53.021Z,17.37
2018-10-12T00:45:57.029Z,16.23
2018-10-12T00:47:01.027Z,18.67
2018-10-12T00:48:05.012Z,17.00
2018-10-12T00:49:09.432Z,18.20
2018-10-12T00:50:13.428Z,17.98
2018-10-12T00:51:17.523Z,16.17
2018-10-12T00:52:21.550Z,17.62
2018-10-12T00:53:25.660Z,16.87
2018-10-12T00:54:29.704Z,16.80
2018-10-12T00:55:34.499Z,16.95
2018-10-12T00:56:38.579Z,16.45
2018-10-12T00:57:42.579Z,18.30
2018-10-12T00:58:46.580Z,16.40
2018-10-12T00:59:50.590Z,18.00
2018-10-12T01:00:54.584Z,17.40
2018-10-12T01:01:58.599Z,16.70
2018-10-12T01:03:02.604Z,18.67
2018-10-12T01:04:06.604Z,17.98
2018-10-12T01:05:10.594Z,16.50
2018-10-12T01:06:14.583Z,17.85
2018-10-12T01:07:18.608Z,16.45
2018-10-12T01:08:22.627Z,16.35
2018-10-12T01:09:26.796Z,16.82
2018-10-12T01:10:30.809Z,17.55
2018-10-12T01:11:34.812Z,16.52
2018-10-12T01:12:38.998Z,16.15
2018-10-12T01:13:43.135Z,16.00
2018-10-12T01:14:47.148Z,16.30
2018-10-12T01:15:51.159Z,15.25
2018-10-12T01:16:55.380Z,16.23
2018-10-12T01:17:59.399Z,15.65
2018-10-12T01:19:03.409Z,16.85
2018-10-12T01:20:07.952Z,17.07
2018-10-12T01:21:11.991Z,16.55
2018-10-12T01:22:16.049Z,16.70
2018-10-12T01:23:20.195Z,15.78
2018-10-12T01:24:24.234Z,17.30
2018-10-12T01:25:28.289Z,15.90
2018-10-12T01:26:32.337Z,17.20
2018-10-12T01:27:36.432Z,15.18
2018-10-12T01:28:40.452Z,15.48
2018-10-12T01:29:44.520Z,15.65
2018-10-12T01:30:48.527Z,15.03
2018-10-12T01:31:52.601Z,16.40
2018-10-12T01:33:02.728Z,15.68
2018-10-12T01:34:06.888Z,16.85
2018-10-12T01:35:10.882Z,15.78
2018-10-12T01:36:14.887Z,15.53
2018-10-12T01:37:19.048Z,14.58
2018-10-12T01:38:23.063Z,13.68
2018-10-12T01:39:27.144Z,15.13
2018-10-12T01:40:31.953Z,15.45
2018-10-12T01:41:36.080Z,15.98
2018-10-12T01:42:40.096Z,15.23
2018-10-12T01:43:44.127Z,14.98
2018-10-12T01:44:48.174Z,14.90
2018-10-12T01:45:52.171Z,14.15
2018-10-12T01:46:56.183Z,14.73
2018-10-12T01:48:00.192Z,15.00
2018-10-12T01:49:04.213Z,14.90
2018-10-12T01:50:08.260Z,13.90
2018-10-12T01:51:12.284Z,14.30
2018-10-12T01:52:16.343Z,14.33
2018-10-12T01:53:20.472Z,14.83
2018-10-12T01:54:24.594Z,14.23
2018-10-12T01:55:28.695Z,13.83
2018-10-12T01:56:32.641Z,15.40
2018-10-12T01:57:36.641Z,13.80
2018-10-12T01:58:40.721Z,15.28
2018-10-12T01:59:44.720Z,14.60
2018-10-12T02:00:49.069Z,14.93
2018-10-12T02:01:53.096Z,14.73
2018-10-12T02:02:57.121Z,15.15
2018-10-12T02:04:01.101Z,14.38
2018-10-12T02:05:05.133Z,15.10
2018-10-12T02:06:09.168Z,14.23
2018-10-12T02:07:13.252Z,14.28
2018-10-12T02:08:17.247Z,14.38
2018-10-12T02:09:21.347Z,12.88
2018-10-12T02:10:25.379Z,14.03
2018-10-12T02:11:29.412Z,13.32
2018-10-12T02:12:33.540Z,14.68
2018-10-12T02:13:37.562Z,15.03
2018-10-12T02:14:41.607Z,14.38
2018-10-12T02:15:45.862Z,14.75
2018-10-12T02:16:50.280Z,14.95
2018-10-12T02:17:54.615Z,14.05
2018-10-12T02:18:58.685Z,15.25
2018-10-12T02:20:02.683Z,14.35
2018-10-12T02:21:06.920Z,14.18
2018-10-12T02:22:10.995Z,13.72
2018-10-12T02:23:15.021Z,13.58
2018-10-12T02:24:19.054Z,14.05
2018-10-12T02:25:23.124Z,13.38
2018-10-12T02:26:27.287Z,12.85
2018-10-12T02:27:31.329Z,13.65
2018-10-12T02:28:36.302Z,12.95
2018-10-12T02:29:40.294Z,13.90
2018-10-12T02:30:44.363Z,13.15
2018-10-12T02:31:48.388Z,13.85
2018-10-12T02:32:52.569Z,12.75
2018-10-12T02:33:56.737Z,14.18
2018-10-12T02:35:00.959Z,14.07
2018-10-12T02:36:04.964Z,14.07
2018-10-12T02:37:08.974Z,12.43
2018-10-12T02:38:13.020Z,13.85
2018-10-12T02:39:17.067Z,14.18
2018-10-12T02:40:21.200Z,12.75
2018-10-12T02:41:25.168Z,13.70
2018-10-12T02:42:29.224Z,13.60
2018-10-12T02:43:33.247Z,15.03
2018-10-12T02:44:37.311Z,12.55
2018-10-12T02:45:41.567Z,13.15
2018-10-12T02:46:45.591Z,12.37
2018-10-12T02:47:49.655Z,12.47
2018-10-12T02:48:53.688Z,12.55
2018-10-12T02:49:57.779Z,14.00
2018-10-12T02:51:01.816Z,11.73
2018-10-12T02:52:05.849Z,12.55
2018-10-12T02:53:09.925Z,14.43
2018-10-12T02:54:13.955Z,12.65
2018-10-12T02:55:18.169Z,12.80
2018-10-12T02:56:23.132Z,13.72
2018-10-12T02:57:27.131Z,12.85
2018-10-12T02:58:31.247Z,13.25
2018-10-12T02:59:35.307Z,12.93
2018-10-12T03:00:39.335Z,13.38
2018-10-12T03:01:43.479Z,13.08
2018-10-12T03:02:47.487Z,13.85
2018-10-12T03:03:52.299Z,12.20
2018-10-12T03:04:56.292Z,12.25
2018-10-12T03:06:00.271Z,13.00
2018-10-12T03:07:04.255Z,11.88
2018-10-12T03:08:08.255Z,12.80
2018-10-12T03:09:12.766Z,13.98
2018-10-12T03:10:16.789Z,12.45
2018-10-12T03:11:20.779Z,12.63
2018-10-12T03:12:24.920Z,12.13
2018-10-12T03:13:28.887Z,11.55
2018-10-12T03:14:32.943Z,12.85
2018-10-12T03:15:36.933Z,11.45
2018-10-12T03:16:40.907Z,10.23
2018-10-12T03:17:44.916Z,13.15
2018-10-12T03:18:48.892Z,12.28
2018-10-12T03:19:52.864Z,12.05
2018-10-12T03:20:56.893Z,12.00
2018-10-12T03:22:00.906Z,11.35
2018-10-12T03:23:04.866Z,12.60
2018-10-12T03:24:08.823Z,11.63
2018-10-12T03:25:12.801Z,11.95
2018-10-12T03:26:16.824Z,11.65
2018-10-12T03:27:20.808Z,11.83
2018-10-12T03:28:27.186Z,11.97
2018-10-12T03:29:31.185Z,11.05
2018-10-12T03:30:35.188Z,11.45
2018-10-12T03:31:39.184Z,11.25
2018-10-12T03:32:43.184Z,10.95
2018-10-12T03:33:47.196Z,12.45
2018-10-12T03:34:51.286Z,10.38
2018-10-12T03:35:55.524Z,11.45
2018-10-12T03:36:59.562Z,10.93
2018-10-12T03:38:03.528Z,11.68
2018-10-12T03:39:07.973Z,10.85
2018-10-12T03:40:12.024Z,10.80
2018-10-12T03:41:16.072Z,11.60
2018-10-12T03:42:20.064Z,10.63
2018-10-12T03:43:24.151Z,10.68
2018-10-12T03:44:28.139Z,10.80
2018-10-12T03:45:32.131Z,9.83
2018-10-12T03:46:36.112Z,10.90
2018-10-12T03:47:40.156Z,10.08
2018-10-12T03:48:44.140Z,10.50
2018-10-12T03:49:48.238Z,11.80
2018-10-12T03:50:52.171Z,11.55
2018-10-12T03:51:56.250Z,10.93
2018-10-12T03:53:00.187Z,10.43
2018-10-12T03:54:04.176Z,11.10
2018-10-12T03:55:08.156Z,11.00
2018-10-12T03:56:12.363Z,11.12
2018-10-12T03:57:16.407Z,11.20
2018-10-12T03:58:20.411Z,11.60
2018-10-12T03:59:24.496Z,10.32
2018-10-12T04:00:28.599Z,9.93
2018-10-12T04:01:32.606Z,10.48
2018-10-12T04:02:36.929Z,10.50
2018-10-12T04:03:41.232Z,10.68
2018-10-12T04:04:45.237Z,10.75
2018-10-12T04:05:49.346Z,10.65
2018-10-12T04:06:53.721Z,12.75
2018-10-12T04:07:57.852Z,9.83
2018-10-12T04:09:01.993Z,11.25
2018-10-12T04:10:05.989Z,10.25
2018-10-12T04:11:09.985Z,11.35
2018-10-12T04:12:14.003Z,10.35
2018-10-12T04:13:18.003Z,10.72
2018-10-12T04:14:22.051Z,11.70
2018-10-12T04:15:26.131Z,11.40
2018-10-12T04:16:30.131Z,10.60
2018-10-12T04:17:34.159Z,12.10
2018-10-12T04:18:38.183Z,11.12
2018-10-12T04:19:42.247Z,10.60
2018-10-12T04:20:46.219Z,10.72
2018-10-12T04:21:50.286Z,11.10
2018-10-12T04:22:54.301Z,10.35
2018-10-12T04:23:58.327Z,10.00
2018-10-12T04:25:02.334Z,10.48
2018-10-12T04:26:06.348Z,10.98
2018-10-12T04:27:10.397Z,10.08
2018-10-12T04:28:14.499Z,10.58
2018-10-12T04:29:18.507Z,10.82
2018-10-12T04:30:22.623Z,10.45
2018-10-12T04:31:26.637Z,10.30
2018-10-12T04:32:30.648Z,9.25
2018-10-12T04:33:34.643Z,9.40
2018-10-12T04:34:38.735Z,10.13
2018-10-12T04:35:42.797Z,9.83
2018-10-12T04:36:46.831Z,10.10
2018-10-12T04:37:50.903Z,10.40
2018-10-12T04:39:06.435Z,9.23
2018-10-12T04:40:30.454Z,10.18
2018-10-12T04:41:34.570Z,10.82
2018-10-12T04:42:38.573Z,9.38
2018-10-12T04:43:42.985Z,9.88
2018-10-12T04:44:47.048Z,10.28
2018-10-12T04:45:51.177Z,11.45
2018-10-12T04:46:55.190Z,10.35
2018-10-12T04:47:59.187Z,9.78
2018-10-12T04:49:04.339Z,10.23
2018-10-12T04:50:08.452Z,10.28
2018-10-12T04:51:25.904Z,10.85
2018-10-12T04:52:31.963Z,10.00
2018-10-12T04:53:36.196Z,10.50
2018-10-12T04:54:40.205Z,10.43
2018-10-12T04:55:44.281Z,9.08
2018-10-12T04:56:48.918Z,11.60
2018-10-12T04:57:52.932Z,10.00
2018-10-12T04:58:56.940Z,10.23
2018-10-12T05:00:00.915Z,10.20
2018-10-12T05:01:04.940Z,10.93
2018-10-12T05:02:08.903Z,8.85
2018-10-12T05:03:12.901Z,9.20
2018-10-12T05:04:16.907Z,9.65
2018-10-12T05:05:20.951Z,11.50
2018-10-12T05:06:25.145Z,8.70
2018-10-12T05:07:29.250Z,10.58
2018-10-12T05:08:33.479Z,9.25
2018-10-12T05:09:37.475Z,10.20
2018-10-12T05:10:41.603Z,9.45
2018-10-12T05:11:45.647Z,11.97
2018-10-12T05:12:49.646Z,10.58
2018-10-12T05:13:53.615Z,9.55
2018-10-12T05:14:57.736Z,10.85
2018-10-12T05:16:02.309Z,10.28
2018-10-12T05:17:06.390Z,10.28
2018-10-12T05:18:10.492Z,10.75
2018-10-12T05:19:14.420Z,10.75
2018-10-12T05:20:18.388Z,10.05
2018-10-12T05:21:22.372Z,10.05
2018-10-12T05:22:26.363Z,10.93
2018-10-12T05:23:30.531Z,11.50
2018-10-12T05:24:34.563Z,10.88
2018-10-12T05:25:38.670Z,9.95
2018-10-12T05:26:42.734Z,9.98
2018-10-12T05:27:46.873Z,11.30
2018-10-12T05:28:51.125Z,10.75
2018-10-12T05:29:55.122Z,11.35
2018-10-12T05:30:59.114Z,9.90
2018-10-12T05:32:03.096Z,12.60
2018-10-12T05:33:07.248Z,11.08
2018-10-12T05:34:11.264Z,11.50
2018-10-12T05:35:15.276Z,10.75
2018-10-12T05:36:19.280Z,12.68
2018-10-12T05:37:23.304Z,11.60
2018-10-12T05:38:28.748Z,11.33
2018-10-12T05:39:32.755Z,12.00
2018-10-12T05:40:36.803Z,10.78
2018-10-12T05:41:40.799Z,10.58
2018-10-12T05:42:44.980Z,12.20
2018-10-12T05:43:49.062Z,10.93
2018-10-12T05:44:52.999Z,12.10
2018-10-12T05:45:57.021Z,10.82
2018-10-12T05:47:01.039Z,11.05
2018-10-12T05:48:16.382Z,11.05
2018-10-12T05:49:31.648Z,10.63
2018-10-12T05:50:35.966Z,11.57
2018-10-12T05:51:40.719Z,12.15
2018-10-12T05:52:44.796Z,12.33
2018-10-12T05:53:48.791Z,12.53
2018-10-12T05:54:52.848Z,11.28
2018-10-12T05:55:57.630Z,11.28
2018-10-12T05:57:01.828Z,10.75
2018-10-12T05:58:06.292Z,13.05
2018-10-12T05:59:10.348Z,11.65
2018-10-12T06:00:14.377Z,11.22
2018-10-12T06:01:18.492Z,11.00
2018-10-12T06:02:22.730Z,10.65
2018-10-12T06:03:26.774Z,10.20
2018-10-12T06:04:30.795Z,12.07
2018-10-12T06:05:34.847Z,11.18
2018-10-12T06:06:38.936Z,11.50
2018-10-12T06:07:43.016Z,10.88
2018-10-12T06:08:47.100Z,8.93
2018-10-12T06:09:51.419Z,12.55
2018-10-12T06:10:55.263Z,11.28
2018-10-12T06:11:59.261Z,10.90
2018-10-12T06:13:03.323Z,11.38
2018-10-12T06:14:07.368Z,10.53
2018-10-12T06:15:11.437Z,11.10
2018-10-12T06:16:15.583Z,10.28
2018-10-12T06:17:19.634Z,11.60
2018-10-12T06:18:23.699Z,9.73
2018-10-12T06:19:27.747Z,10.40
2018-10-12T06:20:31.775Z,9.53
2018-10-12T06:21:35.819Z,9.70
2018-10-12T06:22:39.788Z,11.60
2018-10-12T06:23:43.831Z,11.30
2018-10-12T06:24:48.010Z,9.88
2018-10-12T06:25:52.072Z,10.50
2018-10-12T06:26:56.556Z,10.25
2018-10-12T06:28:00.692Z,10.90
2018-10-12T06:29:04.712Z,10.48
2018-10-12T06:30:09.046Z,10.40
2018-10-12T06:31:13.353Z,10.70
2018-10-12T06:32:17.400Z,10.85
2018-10-12T06:33:21.475Z,10.60
2018-10-12T06:34:25.524Z,11.40
2018-10-12T06:35:29.832Z,9.85
2018-10-12T06:36:33.900Z,10.13
2018-10-12T06:37:37.923Z,10.75
2018-10-12T06:38:41.959Z,9.70
2018-10-12T06:39:46.219Z,11.78
2018-10-12T06:40:53.072Z,12.45
2018-10-12T06:41:57.035Z,10.43
2018-10-12T06:43:01.252Z,10.15
2018-10-12T06:44:05.335Z,10.38
2018-10-12T06:45:09.364Z,9.65
2018-10-12T06:46:13.441Z,10.63
2018-10-12T06:47:17.479Z,12.43
2018-10-12T06:48:21.583Z,13.53
2018-10-12T06:49:25.583Z,9.68
2018-10-12T06:50:29.810Z,9.70
2018-10-12T06:51:33.869Z,11.08
2018-10-12T06:52:37.911Z,10.03
2018-10-12T06:53:41.981Z,9.35
2018-10-12T06:54:45.952Z,9.53
2018-10-12T06:55:49.992Z,10.18
2018-10-12T06:56:54.096Z,12.18
2018-10-12T06:57:58.372Z,9.68
2018-10-12T06:59:02.542Z,9.20
2018-10-12T07:00:06.851Z,10.95
2018-10-12T07:01:10.796Z,9.70
2018-10-12T07:02:16.355Z,9.50
2018-10-12T07:03:20.584Z,9.58
2018-10-12T07:04:24.402Z,9.50
2018-10-12T07:05:28.459Z,10.43
2018-10-12T07:06:32.524Z,10.55
2018-10-12T07:07:36.542Z,9.98
2018-10-12T07:08:40.633Z,10.20
2018-10-12T07:09:44.743Z,10.68
2018-10-12T07:10:48.777Z,9.83
2018-10-12T07:11:52.793Z,10.82
2018-10-12T07:12:56.815Z,9.90
2018-10-12T07:14:00.855Z,11.18
2018-10-12T07:15:06.252Z,9.93
2018-10-12T07:16:10.359Z,10.85
2018-10-12T07:17:14.482Z,9.88
2018-10-12T07:18:18.463Z,10.30
2018-10-12T07:19:22.516Z,10.90
2018-10-12T07:20:26.546Z,14.18
2018-10-12T07:21:30.544Z,10.30
2018-10-12T07:22:34.666Z,8.95
2018-10-12T07:23:38.654Z,10.55
2018-10-12T07:24:42.609Z,9.85
2018-10-12T07:25:46.712Z,10.20
2018-10-12T07:26:50.739Z,10.23
2018-10-12T07:27:54.772Z,9.65
2018-10-12T07:28:58.804Z,10.65
2018-10-12T07:30:02.779Z,10.35
2018-10-12T07:31:07.462Z,9.73
2018-10-12T07:32:11.412Z,9.90
2018-10-12T07:33:15.400Z,9.30
2018-10-12T07:34:19.456Z,9.23
2018-10-12T07:35:23.488Z,9.65
2018-10-12T07:36:27.800Z,9.78
2018-10-12T07:37:31.844Z,9.33
2018-10-12T07:38:35.927Z,9.48
2018-10-12T07:39:46.735Z,9.28
2018-10-12T07:40:50.759Z,8.83
2018-10-12T07:41:54.751Z,8.80
2018-10-12T07:42:58.740Z,9.35
2018-10-12T07:44:02.762Z,8.23
2018-10-12T07:45:07.106Z,8.45
2018-10-12T07:46:11.171Z,9.00
2018-10-12T07:47:15.175Z,9.58
2018-10-12T07:48:19.265Z,8.08
2018-10-12T07:49:23.305Z,7.87
2018-10-12T07:50:27.519Z,9.90
2018-10-12T07:51:31.531Z,9.28
2018-10-12T07:52:35.582Z,7.87
2018-10-12T07:53:39.555Z,9.45
2018-10-12T07:54:43.556Z,7.90
2018-10-12T07:55:47.544Z,8.78
2018-10-12T07:56:51.567Z,9.15
2018-10-12T07:57:55.601Z,10.85
2018-10-12T07:59:00.096Z,9.08
2018-10-12T08:00:04.185Z,7.90
2018-10-12T08:01:08.108Z,7.87
2018-10-12T08:02:13.052Z,8.15
2018-10-12T08:03:18.135Z,8.40
2018-10-12T08:04:22.151Z,8.58
2018-10-12T08:05:26.172Z,8.65
2018-10-12T08:06:30.225Z,7.87
2018-10-12T08:07:34.148Z,7.62
2018-10-12T08:08:38.191Z,7.33
2018-10-12T08:09:42.235Z,7.55
2018-10-12T08:10:46.204Z,7.87
2018-10-12T08:11:50.184Z,7.10
2018-10-12T08:12:54.164Z,7.17
2018-10-12T08:13:58.296Z,7.25
2018-10-12T08:15:02.177Z,7.55
2018-10-12T08:16:06.189Z,7.65
2018-10-12T08:17:10.178Z,7.00
2018-10-12T08:18:14.131Z,7.15
2018-10-12T08:19:18.128Z,7.97
2018-10-12T08:20:22.280Z,8.78
2018-10-12T08:21:26.260Z,6.62
2018-10-12T08:22:30.243Z,6.85
2018-10-12T08:23:34.280Z,7.53
2018-10-12T08:24:38.280Z,7.55
2018-10-12T08:25:42.878Z,7.12
2018-10-12T08:26:46.921Z,7.75
2018-10-12T08:27:50.949Z,7.00
2018-10-12T08:28:54.985Z,6.95
2018-10-12T08:29:59.303Z,6.95
2018-10-12T08:31:03.365Z,7.22
2018-10-12T08:32:07.355Z,8.45
2018-10-12T08:33:11.335Z,6.53
2018-10-12T08:34:15.376Z,6.80
2018-10-12T08:35:19.375Z,6.42
2018-10-12T08:36:23.440Z,6.90
2018-10-12T08:37:27.624Z,7.25
2018-10-12T08:38:31.689Z,8.03
2018-10-12T08:39:35.687Z,5.97
2018-10-12T08:40:39.694Z,6.97
2018-10-12T08:41:43.684Z,7.25
2018-10-12T08:42:47.666Z,7.35
2018-10-12T08:43:51.639Z,7.30
2018-10-12T08:44:55.641Z,8.30
2018-10-12T08:45:59.608Z,7.28
2018-10-12T08:47:03.641Z,6.55
2018-10-12T08:48:07.703Z,7.42
2018-10-12T08:49:11.709Z,7.83
2018-10-12T08:50:15.721Z,6.67
2018-10-12T08:51:19.736Z,6.60
2018-10-12T08:52:23.817Z,6.60
2018-10-12T08:53:27.899Z,7.17
2018-10-12T08:54:31.944Z,7.05
2018-10-12T08:55:36.012Z,6.95
2018-10-12T08:56:40.305Z,7.22
2018-10-12T08:57:44.589Z,7.50
2018-10-12T08:58:48.628Z,6.50
2018-10-12T08:59:52.831Z,7.25
2018-10-12T09:00:56.801Z,7.33
2018-10-12T09:02:00.779Z,7.00
2018-10-12T09:03:04.866Z,7.12
2018-10-12T09:04:08.895Z,7.33
2018-10-12T09:05:12.901Z,6.62
2018-10-12T09:06:17.003Z,6.33
2018-10-12T09:07:21.007Z,7.30
2018-10-12T09:08:25.003Z,6.65
2018-10-12T09:09:29.048Z,7.35
2018-10-12T09:10:33.020Z,6.80
2018-10-12T09:11:37.401Z,6.60
2018-10-12T09:12:41.401Z,6.40
2018-10-12T09:13:45.397Z,6.40
2018-10-12T09:14:50.763Z,7.62
2018-10-12T09:15:54.798Z,6.15
2018-10-12T09:16:58.822Z,7.00
2018-10-12T09:18:02.868Z,9.28
2018-10-12T09:19:07.016Z,7.30
2018-10-12T09:20:11.092Z,6.37
2018-10-12T09:21:15.176Z,7.40
2018-10-12T09:22:19.231Z,6.80
2018-10-12T09:23:23.272Z,7.30
2018-10-12T09:24:27.230Z,6.60
2018-10-12T09:25:31.256Z,6.65
2018-10-12T09:26:35.358Z,6.50
2018-10-12T09:27:39.379Z,6.92
2018-10-12T09:28:43.382Z,6.40
2018-10-12T09:29:47.412Z,5.65
2018-10-12T09:30:51.504Z,7.35
2018-10-12T09:31:55.636Z,7.55
2018-10-12T09:32:59.717Z,6.55
2018-10-12T09:34:03.703Z,6.28
2018-10-12T09:35:07.833Z,6.85
2018-10-12T09:36:11.884Z,6.33
2018-10-12T09:37:15.884Z,6.53
2018-10-12T09:38:19.945Z,6.62
2018-10-12T09:39:23.934Z,6.53
2018-10-12T09:40:28.010Z,5.75
2018-10-12T09:41:32.039Z,5.85
2018-10-12T09:42:36.063Z,6.17
2018-10-12T09:43:40.152Z,6.60
2018-10-12T09:44:44.155Z,6.90
2018-10-12T09:45:48.184Z,5.92
2018-10-12T09:46:52.208Z,5.78
2018-10-12T09:47:56.208Z,6.33
2018-10-12T09:49:00.223Z,5.92
2018-10-12T09:50:04.303Z,5.97
2018-10-12T09:51:08.302Z,6.20
2018-10-12T09:52:12.308Z,6.55
2018-10-12T09:53:16.365Z,6.17
2018-10-12T09:54:20.483Z,6.05
2018-10-12T09:55:24.651Z,5.75
2018-10-12T09:56:28.757Z,7.00
2018-10-12T09:57:34.616Z,6.35
2018-10-12T09:58:38.642Z,5.40
2018-10-12T09:59:42.741Z,5.67
2018-10-12T10:00:52.575Z,5.40
2018-10-12T10:02:01.876Z,6.30
2018-10-12T10:03:11.195Z,6.20
2018-10-12T10:04:18.555Z,6.20
2018-10-12T10:05:23.247Z,6.45
2018-10-12T10:06:27.322Z,6.47
2018-10-12T10:07:31.365Z,6.12
2018-10-12T10:08:35.874Z,5.47
2018-10-12T10:09:39.324Z,6.25
2018-10-12T10:10:43.372Z,7.37
2018-10-12T10:11:47.421Z,6.10
2018-10-12T10:12:51.410Z,6.97
2018-10-12T10:13:55.515Z,6.20
2018-10-12T10:14:59.455Z,5.10
2018-10-12T10:16:03.552Z,5.65
2018-10-12T10:17:07.588Z,6.58
2018-10-12T10:18:11.631Z,5.90
2018-10-12T10:19:15.729Z,5.08
2018-10-12T10:20:19.785Z,5.80
2018-10-12T10:21:24.192Z,5.45
2018-10-12T10:22:28.266Z,5.42
2018-10-12T10:23:32.212Z,5.72
2018-10-12T10:24:36.252Z,5.85
2018-10-12T10:25:40.285Z,6.28
2018-10-12T10:26:44.375Z,6.30
2018-10-12T10:27:48.365Z,6.05
2018-10-12T10:28:52.346Z,5.35
2018-10-12T10:29:56.381Z,6.20
2018-10-12T10:31:00.472Z,5.50
2018-10-12T10:32:04.468Z,6.25
2018-10-12T10:33:08.520Z,6.72
2018-10-12T10:34:12.488Z,5.97
2018-10-12T10:35:16.699Z,6.35
2018-10-12T10:36:20.981Z,6.10
2018-10-12T10:37:25.012Z,6.00
2018-10-12T10:38:29.055Z,6.62
2018-10-12T10:39:33.128Z,5.92
2018-10-12T10:40:37.198Z,6.58
2018-10-12T10:41:41.504Z,6.45
2018-10-12T10:42:45.605Z,6.42
2018-10-12T10:43:50.032Z,5.65
2018-10-12T10:44:54.135Z,4.70
2018-10-12T10:45:58.230Z,5.37
2018-10-12T10:47:02.323Z,5.17
2018-10-12T10:48:06.447Z,6.03
2018-10-12T10:49:10.515Z,6.10
2018-10-12T10:50:14.529Z,5.50
2018-10-12T10:51:18.544Z,6.35
2018-10-12T10:52:22.540Z,5.33
2018-10-12T10:53:26.676Z,5.33
2018-10-12T10:54:30.917Z,5.03
2018-10-12T10:55:34.916Z,5.15
2018-10-12T10:56:38.959Z,6.55
2018-10-12T10:57:43.115Z,5.47
2018-10-12T10:58:47.139Z,4.50
2018-10-12T10:59:51.152Z,5.08
2018-10-12T11:00:55.427Z,5.10
2018-10-12T11:01:59.409Z,4.50
2018-10-12T11:03:03.464Z,4.92
2018-10-12T11:04:08.023Z,5.20
2018-10-12T11:05:12.100Z,5.40
2018-10-12T11:06:16.383Z,5.85
2018-10-12T11:07:20.519Z,5.28
2018-10-12T11:08:24.574Z,5.53
2018-10-12T11:09:28.591Z,4.95
2018-10-12T11:10:32.694Z,5.42
2018-10-12T11:11:36.939Z,4.78
2018-10-12T11:12:41.589Z,5.00
2018-10-12T11:13:45.723Z,5.05
2018-10-12T11:14:49.765Z,4.90
2018-10-12T11:15:53.813Z,4.83
2018-10-12T11:16:58.800Z,7.50
2018-10-12T11:18:02.908Z,4.67
2018-10-12T11:19:07.132Z,6.00
2018-10-12T11:20:11.229Z,4.30
2018-10-12T11:21:15.235Z,4.90
2018-10-12T11:22:19.341Z,4.40
2018-10-12T11:23:23.370Z,4.53
2018-10-12T11:24:27.453Z,4.80
2018-10-12T11:25:31.700Z,5.15
2018-10-12T11:26:35.894Z,5.00
2018-10-12T11:27:39.955Z,4.83
2018-10-12T11:28:44.289Z,4.30
2018-10-12T11:29:48.280Z,5.70
2018-10-12T11:30:52.690Z,4.50
2018-10-12T11:31:56.960Z,5.08
2018-10-12T11:33:01.360Z,5.60
2018-10-12T11:34:05.619Z,4.95
2018-10-12T11:35:09.678Z,4.50
2018-10-12T11:36:13.744Z,4.17
2018-10-12T11:37:17.775Z,4.25
2018-10-12T11:38:21.865Z,4.50
2018-10-12T11:39:26.006Z,4.00
2018-10-12T11:40:30.124Z,4.78
2018-10-12T11:41:34.146Z,4.47
2018-10-12T11:42:49.588Z,4.28
2018-10-12T11:43:53.662Z,4.30
2018-10-12T11:44:57.756Z,3.80
2018-10-12T11:46:02.251Z,4.10
2018-10-12T11:47:06.269Z,4.12
2018-10-12T11:48:10.284Z,4.70
2018-10-12T11:49:14.416Z,4.53
2018-10-12T11:50:18.597Z,4.35
2018-10-12T11:51:22.582Z,4.55
2018-10-12T11:52:26.625Z,4.58
2018-10-12T11:53:30.784Z,4.55
2018-10-12T11:54:34.964Z,4.80
2018-10-12T11:55:39.201Z,3.30
2018-10-12T11:56:43.382Z,4.72
2018-10-12T11:57:47.354Z,4.90
2018-10-12T11:58:51.401Z,4.72
2018-10-12T11:59:55.423Z,3.75
2018-10-12T12:00:59.859Z,4.00
2018-10-12T12:02:03.936Z,3.93
2018-10-12T12:03:07.919Z,3.95
2018-10-12T12:04:11.908Z,3.80
2018-10-12T12:05:15.992Z,4.45
2018-10-12T12:06:20.134Z,3.70
2018-10-12T12:07:24.209Z,4.05
2018-10-12T12:08:28.083Z,4.67
2018-10-12T12:09:32.064Z,3.85
2018-10-12T12:10:36.107Z,4.10
2018-10-12T12:11:40.132Z,4.95
2018-10-12T12:12:44.129Z,3.55
2018-10-12T12:13:48.340Z,3.83
2018-10-12T12:14:52.354Z,3.65
2018-10-12T12:15:56.317Z,3.90
2018-10-12T12:17:00.384Z,4.00
2018-10-12T12:18:04.364Z,3.67
2018-10-12T12:19:08.351Z,3.70
2018-10-12T12:20:12.334Z,3.40
2018-10-12T12:21:16.356Z,3.87
2018-10-12T12:22:20.406Z,4.00
2018-10-12T12:23:24.803Z,4.20
2018-10-12T12:24:28.914Z,3.87
2018-10-12T12:25:33.033Z,4.62
2018-10-12T12:26:37.087Z,4.40
2018-10-12T12:27:41.226Z,3.73
2018-10-12T12:28:45.256Z,3.77
2018-10-12T12:29:49.231Z,3.67
2018-10-12T12:30:53.224Z,3.57
2018-10-12T12:31:57.212Z,4.37
2018-10-12T12:33:01.227Z,2.90
2018-10-12T12:34:05.309Z,3.50
2018-10-12T12:35:09.745Z,3.15
2018-10-12T12:36:14.253Z,2.60
2018-10-12T12:37:18.117Z,3.20
2018-10-12T12:38:22.200Z,4.20
2018-10-12T12:39:26.182Z,4.03
2018-10-12T12:40:30.216Z,4.12
2018-10-12T12:41:34.268Z,3.40
2018-10-12T12:42:38.426Z,3.80
2018-10-12T12:43:43.489Z,3.60
2018-10-12T12:44:47.467Z,3.37
2018-10-12T12:45:51.435Z,2.53
2018-10-12T12:46:55.420Z,3.23
2018-10-12T12:47:59.608Z,3.83
2018-10-12T12:49:03.591Z,4.17
2018-10-12T12:50:07.691Z,3.60
2018-10-12T12:51:13.059Z,3.47
2018-10-12T12:52:17.126Z,3.37
2018-10-12T12:53:21.075Z,3.37
2018-10-12T12:54:25.440Z,2.73
2018-10-12T12:55:29.431Z,2.80
2018-10-12T12:56:33.549Z,3.62
2018-10-12T12:57:37.529Z,2.67
2018-10-12T12:58:41.813Z,2.70
2018-10-12T12:59:45.935Z,3.00
2018-10-12T13:00:49.973Z,3.70
2018-10-12T13:01:54.231Z,3.57
2018-10-12T13:02:58.228Z,3.00
2018-10-12T13:04:02.228Z,3.70
2018-10-12T13:05:06.355Z,3.30
2018-10-12T13:06:10.384Z,3.10
2018-10-12T13:07:14.335Z,2.57
2018-10-12T13:08:18.627Z,2.93
2018-10-12T13:09:22.919Z,3.00
2018-10-12T13:10:26.891Z,3.70
2018-10-12T13:11:30.919Z,3.30
2018-10-12T13:12:34.889Z,3.20
2018-10-12T13:13:39.100Z,3.30
2018-10-12T13:14:43.321Z,3.10
2018-10-12T13:15:47.418Z,3.23
2018-10-12T13:16:51.412Z,2.90
2018-10-12T13:17:55.359Z,3.00
2018-10-12T13:18:59.392Z,3.20
2018-10-12T13:20:03.385Z,2.60
2018-10-12T13:21:07.811Z,3.03
2018-10-12T13:22:11.760Z,3.57
2018-10-12T13:23:17.333Z,3.70
2018-10-12T13:24:21.315Z,3.57
2018-10-12T13:25:25.350Z,4.17
2018-10-12T13:26:29.334Z,3.60
2018-10-12T13:27:33.404Z,3.40
2018-10-12T13:28:37.400Z,3.70
2018-10-12T13:29:41.613Z,2.90
2018-10-12T13:30:49.056Z,3.63
2018-10-12T13:31:53.104Z,3.30
2018-10-12T13:32:57.031Z,3.10
2018-10-12T13:34:01.004Z,3.07
2018-10-12T13:35:04.995Z,3.10
2018-10-12T13:36:09.223Z,3.70
2018-10-12T13:37:13.243Z,3.70
2018-10-12T13:38:17.221Z,4.03
2018-10-12T13:39:21.205Z,3.00
2018-10-12T13:40:25.194Z,3.37
2018-10-12T13:41:29.216Z,3.00
2018-10-12T13:42:33.208Z,3.63
2018-10-12T13:43:37.207Z,3.60
2018-10-12T13:44:41.280Z,3.40
2018-10-12T13:45:45.283Z,3.80
2018-10-12T13:46:49.280Z,3.47
2018-10-12T13:47:53.393Z,3.83
2018-10-12T13:48:57.325Z,4.33
2018-10-12T13:50:01.516Z,2.90
2018-10-12T13:51:05.487Z,3.50
2018-10-12T13:52:09.464Z,2.80
2018-10-12T13:53:13.463Z,3.20
2018-10-12T13:54:17.519Z,3.10
2018-10-12T13:55:21.648Z,3.30
2018-10-12T13:56:25.621Z,3.17
2018-10-12T13:57:29.677Z,3.75
2018-10-12T13:58:33.698Z,3.77
2018-10-12T13:59:37.683Z,3.20
2018-10-12T14:00:41.684Z,3.20